createdAt,value
2023-01-01T00:02:00.912Z,70.65
2023-01-01T00:04:29.282Z,70.89
2023-01-01T00:06:57.979Z,71.17
2023-01-01T00:09:45.106Z,72.13
2023-01-01T00:12:14.186Z,71.82
2023-01-01T00:14:44.481Z,71.29
2023-01-01T00:17:12.618Z,70.97
2023-01-01T00:19:41.072Z,71.42
2023-01-01T00:22:43.654Z,71.30
2023-01-01T00:25:00.850Z,71.45
2023-01-01T00:27:28.837Z,71.22
2023-01-01T00:29:57.376Z,70.33
2023-01-01T00:32:25.903Z,70.88
2023-01-01T00:34:53.904Z,71.22
2023-01-01T00:37:22.805Z,71.00
2023-01-01T00:39:50.811Z,70.30
2023-01-01T00:42:21.086Z,69.73
2023-01-01T00:44:49.997Z,70.40
2023-01-01T00:47:17.931Z,70.27
2023-01-01T00:49:46.429Z,70.88
2023-01-01T00:52:14.986Z,70.69
2023-01-01T00:54:43.006Z,70.29
2023-01-01T00:57:10.919Z,70.60
2023-01-01T00:59:41.241Z,70.67
2023-01-01T01:02:09.370Z,70.12
2023-01-01T01:04:38.281Z,70.31
2023-01-01T01:07:06.225Z,70.57
2023-01-01T01:09:34.741Z,70.23
2023-01-01T01:12:18.492Z,70.08
2023-01-01T01:14:48.938Z,70.29
2023-01-01T01:17:17.358Z,70.42
2023-01-01T01:19:45.760Z,71.04
2023-01-01T01:22:14.203Z,70.24
2023-01-01T01:24:42.237Z,70.45
2023-01-01T01:27:10.176Z,69.64
2023-01-01T01:29:38.991Z,69.50
2023-01-01T01:32:08.444Z,69.69
2023-01-01T01:34:38.338Z,69.84
2023-01-01T01:37:08.004Z,69.64
2023-01-01T01:39:36.228Z,70.12
2023-01-01T01:42:05.470Z,69.73
2023-01-01T01:44:52.933Z,70.44
2023-01-01T01:47:28.545Z,70.42
2023-01-01T01:50:00.484Z,70.25
2023-01-01T01:52:30.488Z,70.20
2023-01-01T01:54:59.027Z,69.83
2023-01-01T01:57:27.449Z,70.25
2023-01-01T01:59:58.466Z,70.65
2023-01-01T02:02:35.149Z,69.82
2023-01-01T02:05:05.510Z,70.26
2023-01-01T02:07:33.836Z,70.21
2023-01-01T02:10:03.909Z,69.74
2023-01-01T02:12:32.072Z,69.71
2023-01-01T02:15:00.361Z,69.92
2023-01-01T02:17:39.404Z,69.17
2023-01-01T02:20:41.855Z,69.65
2023-01-01T02:23:46.288Z,69.43
2023-01-01T02:26:42.619Z,68.70
2023-01-01T02:29:23.370Z,68.70
2023-01-01T02:31:59.380Z,68.91
2023-01-01T02:34:33.061Z,68.10
2023-01-01T02:37:03.068Z,67.82
2023-01-01T02:39:35.577Z,68.28
2023-01-01T02:42:06.612Z,68.12
2023-01-01T02:44:42.475Z,67.95
2023-01-01T02:47:12.858Z,67.71
2023-01-01T02:49:50.083Z,67.69
2023-01-01T02:52:32.771Z,67.11
2023-01-01T02:55:07.576Z,67.27
2023-01-01T02:57:39.888Z,67.08
2023-01-01T03:00:28.612Z,67.37
2023-01-01T03:03:10.657Z,67.43
2023-01-01T03:06:02.388Z,67.21
2023-01-01T03:08:42.437Z,67.44
2023-01-01T03:11:13.436Z,66.91
2023-01-01T03:13:49.293Z,67.16
2023-01-01T03:16:22.781Z,66.43
2023-01-01T03:19:12.024Z,66.69
2023-01-01T03:21:44.767Z,66.48
2023-01-01T03:24:20.914Z,66.68
2023-01-01T03:26:53.897Z,66.59
2023-01-01T03:29:24.948Z,66.39
2023-01-01T03:31:58.532Z,67.26
2023-01-01T03:34:33.703Z,66.83
2023-01-01T03:37:06.447Z,67.41
2023-01-01T03:39:38.113Z,67.80
2023-01-01T03:42:16.922Z,67.86
2023-01-01T03:44:51.251Z,68.13
2023-01-01T03:47:21.373Z,68.34
2023-01-01T03:49:49.709Z,68.29
2023-01-01T03:52:32.522Z,67.83
2023-01-01T03:55:07.554Z,68.21
2023-01-01T03:57:44.925Z,69.08
2023-01-01T04:00:16.581Z,68.39
2023-01-01T04:02:53.339Z,68.81
2023-01-01T04:05:22.322Z,68.63
2023-01-01T04:07:53.313Z,68.62
2023-01-01T04:10:23.123Z,68.89
2023-01-01T04:12:54.162Z,69.13
2023-01-01T04:15:25.204Z,68.75
2023-01-01T04:17:56.249Z,68.87
2023-01-01T04:20:24.944Z,69.57
2023-01-01T04:22:53.324Z,68.39
2023-01-01T04:25:22.126Z,69.11
2023-01-01T04:27:50.121Z,68.77
2023-01-01T04:30:18.941Z,68.45
2023-01-01T04:32:47.814Z,68.55
2023-01-01T04:35:17.271Z,68.10
2023-01-01T04:37:46.003Z,68.20
2023-01-01T04:40:15.799Z,68.31
2023-01-01T04:42:44.354Z,68.21
2023-01-01T04:45:15.639Z,68.00
2023-01-01T04:47:43.787Z,68.19
2023-01-01T04:50:12.167Z,67.79
2023-01-01T04:52:42.381Z,68.28
2023-01-01T04:55:10.751Z,68.52
2023-01-01T04:57:39.113Z,69.07
2023-01-01T05:00:08.779Z,68.42
2023-01-01T05:02:36.795Z,68.22
2023-01-01T05:05:06.124Z,68.69
2023-01-01T05:07:35.347Z,68.39
2023-01-01T05:10:05.141Z,69.14
2023-01-01T05:12:33.549Z,69.07
2023-01-01T05:15:01.493Z,68.80
2023-01-01T05:17:29.574Z,68.95
2023-01-01T05:19:57.473Z,69.18
2023-01-01T05:22:26.295Z,68.57
2023-01-01T05:24:54.581Z,68.36
2023-01-01T05:27:24.397Z,69.02
2023-01-01T05:29:52.752Z,69.12
2023-01-01T05:32:20.659Z,69.38
2023-01-01T05:34:49.004Z,69.32
2023-01-01T05:37:17.842Z,69.08
2023-01-01T05:39:45.811Z,69.66
2023-01-01T05:42:15.560Z,69.58
2023-01-01T05:44:45.780Z,70.10
2023-01-01T05:47:15.348Z,69.54
2023-01-01T05:49:44.205Z,70.09
2023-01-01T05:52:12.090Z,69.99
2023-01-01T05:54:40.403Z,69.98
2023-01-01T05:57:08.764Z,70.38
2023-01-01T05:59:36.740Z,70.57
2023-01-01T06:02:07.323Z,70.58
2023-01-01T06:04:36.395Z,70.62
2023-01-01T06:07:04.426Z,70.78
2023-01-01T06:09:32.430Z,70.42
2023-01-01T06:12:01.270Z,71.03
2023-01-01T06:14:29.210Z,71.13
2023-01-01T06:16:57.190Z,70.88
2023-01-01T06:19:28.144Z,70.67
2023-01-01T06:21:56.075Z,70.98
2023-01-01T06:24:24.125Z,71.28
2023-01-01T06:26:53.027Z,72.15
2023-01-01T06:29:21.255Z,72.05
2023-01-01T06:31:49.709Z,72.30
2023-01-01T06:34:17.651Z,72.27
2023-01-01T06:36:48.052Z,72.48
2023-01-01T06:39:16.110Z,72.62
2023-01-01T06:41:43.997Z,72.34
2023-01-01T06:44:12.368Z,71.87
2023-01-01T06:46:40.791Z,72.22
2023-01-01T06:49:12.425Z,72.53
2023-01-01T06:51:42.083Z,72.44
2023-01-01T06:54:12.217Z,72.19
2023-01-01T06:56:40.326Z,72.58
2023-01-01T06:59:08.936Z,72.31
2023-01-01T07:01:40.049Z,72.27
2023-01-01T07:04:15.562Z,72.55
2023-01-01T07:06:43.750Z,73.17
2023-01-01T07:09:13.436Z,73.40
2023-01-01T07:11:41.781Z,74.34
2023-01-01T07:14:09.650Z,73.80
2023-01-01T07:16:38.253Z,73.87
2023-01-01T07:19:06.664Z,73.28
2023-01-01T07:21:36.615Z,73.00
2023-01-01T07:24:08.179Z,73.04
2023-01-01T07:26:37.445Z,72.18
2023-01-01T07:29:07.901Z,72.72
2023-01-01T07:31:37.960Z,72.81
2023-01-01T07:34:06.266Z,72.87
2023-01-01T07:36:35.046Z,73.20
2023-01-01T07:39:03.039Z,72.66
2023-01-01T07:41:31.518Z,73.07
2023-01-01T07:44:02.168Z,73.02
2023-01-01T07:46:30.882Z,72.84
2023-01-01T07:48:59.842Z,72.83
2023-01-01T07:51:27.774Z,73.46
2023-01-01T07:54:02.252Z,73.28
2023-01-01T07:56:35.006Z,73.96
2023-01-01T07:59:05.150Z,75.10
2023-01-01T08:01:37.682Z,76.12
2023-01-01T08:04:07.332Z,75.84
2023-01-01T08:06:35.260Z,76.08
2023-01-01T08:09:03.672Z,76.09
2023-01-01T08:11:32.028Z,76.61
2023-01-01T08:14:00.056Z,76.50
2023-01-01T08:16:29.443Z,76.50
2023-01-01T08:18:58.178Z,77.15
2023-01-01T08:21:26.084Z,77.77
2023-01-01T08:23:54.514Z,76.79
2023-01-01T08:26:29.319Z,76.64
2023-01-01T08:28:57.748Z,76.31
2023-01-01T08:31:26.876Z,76.49
2023-01-01T08:33:56.186Z,76.55
2023-01-01T08:36:24.701Z,76.46
2023-01-01T08:38:53.134Z,77.20
2023-01-01T08:41:21.108Z,77.66
2023-01-01T08:43:49.070Z,77.86
2023-01-01T08:46:17.313Z,78.46
2023-01-01T08:48:45.321Z,79.37
2023-01-01T08:51:15.550Z,81.82
2023-01-01T08:53:50.382Z,84.04
2023-01-01T08:56:20.942Z,84.79
2023-01-01T08:58:49.484Z,86.63
2023-01-01T09:01:22.533Z,86.79
2023-01-01T09:03:51.570Z,88.15
2023-01-01T09:06:21.236Z,87.77
2023-01-01T09:08:49.347Z,87.11
2023-01-01T09:11:24.047Z,87.81
2023-01-01T09:13:52.700Z,87.09
2023-01-01T09:16:21.658Z,87.01
2023-01-01T09:18:49.881Z,87.43
2023-01-01T09:21:18.715Z,87.89
2023-01-01T09:23:48.026Z,87.97
2023-01-01T09:26:16.511Z,89.68
2023-01-01T09:28:44.431Z,89.71
2023-01-01T09:31:12.419Z,91.00
2023-01-01T09:33:41.520Z,89.58
2023-01-01T09:36:14.629Z,90.63
2023-01-01T09:38:42.636Z,90.15
2023-01-01T09:41:22.126Z,90.22
2023-01-01T09:44:00.598Z,91.07
2023-01-01T09:46:31.865Z,91.14
2023-01-01T09:49:06.449Z,91.05
2023-01-01T09:51:42.922Z,91.14
2023-01-01T09:54:28.418Z,91.76
2023-01-01T09:57:00.333Z,92.30
2023-01-01T09:59:29.658Z,93.55
2023-01-01T10:02:03.200Z,96.62
2023-01-01T10:04:50.144Z,98.95
2023-01-01T10:07:24.227Z,99.99
2023-01-01T10:10:03.438Z,99.99
2023-01-01T10:12:43.603Z,99.99
2023-01-01T10:15:17.910Z,99.99
2023-01-01T10:17:48.304Z,99.99
2023-01-01T10:20:23.390Z,99.99
2023-01-01T10:22:55.253Z,99.99
2023-01-01T10:25:25.870Z,99.99
2023-01-01T10:28:00.039Z,99.99
2023-01-01T10:30:30.925Z,99.99
2023-01-01T10:33:00.742Z,99.99
2023-01-01T10:35:36.014Z,99.99
2023-01-01T10:38:06.118Z,99.99
2023-01-01T10:40:35.585Z,99.99
2023-01-01T10:43:04.985Z,99.99
2023-01-01T10:45:35.835Z,99.99
2023-01-01T10:48:19.064Z,99.99
2023-01-01T10:50:51.244Z,99.99
2023-01-01T10:53:37.961Z,99.99
2023-01-01T10:56:09.209Z,99.99
2023-01-01T10:58:43.314Z,99.99
2023-01-01T11:01:13.774Z,99.99
2023-01-01T11:04:00.422Z,99.99
2023-01-01T11:06:31.124Z,99.99
2023-01-01T11:09:03.870Z,99.99
2023-01-01T11:11:34.817Z,99.33
2023-01-01T11:14:06.150Z,99.33
2023-01-01T11:16:34.718Z,99.84
2023-01-01T11:19:06.057Z,99.50
2023-01-01T11:21:35.358Z,99.24
2023-01-01T11:24:22.000Z,98.57
2023-01-01T11:26:55.264Z,98.83
2023-01-01T11:29:30.450Z,98.01
2023-01-01T11:32:00.870Z,98.09
2023-01-01T11:34:33.617Z,97.94
2023-01-01T11:37:11.079Z,98.09
2023-01-01T11:39:43.033Z,97.95
2023-01-01T11:42:19.627Z,98.41
2023-01-01T11:44:51.094Z,98.38
2023-01-01T11:47:29.956Z,98.61
2023-01-01T11:50:02.553Z,98.29
2023-01-01T11:52:39.370Z,98.06
2023-01-01T11:55:18.650Z,97.55
2023-01-01T11:57:54.219Z,98.15
2023-01-01T12:00:23.544Z,97.87
2023-01-01T12:02:58.079Z,98.07
2023-01-01T12:05:35.576Z,98.55
2023-01-01T12:08:11.014Z,98.72
2023-01-01T12:10:50.181Z,97.82
2023-01-01T12:13:22.556Z,97.87
2023-01-01T12:15:59.192Z,98.30
2023-01-01T12:18:35.535Z,99.45
2023-01-01T12:21:09.052Z,98.51
2023-01-01T12:23:38.813Z,97.24
2023-01-01T12:26:16.572Z,94.94
2023-01-01T12:29:19.939Z,94.77
2023-01-01T12:31:58.779Z,95.41
2023-01-01T12:34:33.887Z,95.33
2023-01-01T12:37:12.244Z,94.70
2023-01-01T12:40:19.660Z,93.96
2023-01-01T12:43:02.549Z,92.77
2023-01-01T12:45:47.103Z,91.55
2023-01-01T12:48:33.724Z,91.69
2023-01-01T12:51:09.264Z,91.58
2023-01-01T12:53:48.759Z,91.02
2023-01-01T12:56:24.505Z,90.93
2023-01-01T12:58:57.333Z,90.95
2023-01-01T13:01:33.595Z,91.64
2023-01-01T13:04:05.545Z,90.14
2023-01-01T13:06:40.019Z,90.16
2023-01-01T13:09:12.423Z,89.63
2023-01-01T13:11:45.157Z,88.77
2023-01-01T13:14:14.154Z,89.25
2023-01-01T13:16:43.831Z,89.27
2023-01-01T13:19:27.920Z,88.99
2023-01-01T13:21:56.771Z,88.69
2023-01-01T13:24:26.237Z,88.35
2023-01-01T13:26:54.919Z,88.40
2023-01-01T13:29:34.205Z,86.86
2023-01-01T13:32:11.866Z,87.41
2023-01-01T13:35:06.292Z,86.56
2023-01-01T13:37:55.174Z,86.71
2023-01-01T13:40:52.043Z,86.75
2023-01-01T13:43:27.697Z,86.21
2023-01-01T13:46:14.293Z,85.13
2023-01-01T13:49:18.016Z,85.43
2023-01-01T13:52:26.441Z,85.26
2023-01-01T13:55:20.840Z,85.41
2023-01-01T13:58:16.215Z,86.07
2023-01-01T14:00:56.383Z,86.65
2023-01-01T14:03:28.820Z,86.15
2023-01-01T14:05:59.655Z,85.79
2023-01-01T14:08:32.317Z,85.94
2023-01-01T14:11:02.211Z,86.48
2023-01-01T14:13:32.911Z,86.06
2023-01-01T14:16:03.436Z,86.35
2023-01-01T14:18:35.989Z,86.53
2023-01-01T14:21:09.919Z,85.95
2023-01-01T14:23:42.979Z,85.82
2023-01-01T14:26:13.325Z,86.13
2023-01-01T14:28:42.794Z,85.96
2023-01-01T14:31:14.863Z,85.69
2023-01-01T14:33:43.324Z,86.36
2023-01-01T14:36:18.777Z,86.38
2023-01-01T14:38:52.256Z,86.43
2023-01-01T14:41:27.220Z,86.13
2023-01-01T14:43:59.044Z,86.52
2023-01-01T14:46:28.120Z,86.45
2023-01-01T14:48:58.696Z,86.40
2023-01-01T14:51:30.074Z,86.77
2023-01-01T14:54:02.191Z,87.17
2023-01-01T14:56:32.791Z,87.33
2023-01-01T14:59:07.885Z,87.06
2023-01-01T15:01:36.983Z,86.88
2023-01-01T15:04:06.683Z,87.62
2023-01-01T15:06:34.694Z,87.42
2023-01-01T15:09:04.633Z,87.58
2023-01-01T15:11:32.608Z,87.97
2023-01-01T15:14:02.717Z,88.23
2023-01-01T15:16:38.100Z,87.37
2023-01-01T15:19:19.543Z,87.48
2023-01-01T15:21:48.591Z,87.36
2023-01-01T15:24:22.192Z,87.69
2023-01-01T15:26:55.180Z,87.60
2023-01-01T15:29:29.141Z,88.01
2023-01-01T15:32:00.789Z,87.56
2023-01-01T15:34:31.674Z,87.61
2023-01-01T15:37:09.613Z,87.63
2023-01-01T15:39:48.305Z,87.87
2023-01-01T15:42:34.292Z,88.55
2023-01-01T15:45:23.541Z,88.70
2023-01-01T15:47:54.430Z,88.63
2023-01-01T15:50:25.804Z,88.88
2023-01-01T15:52:57.327Z,88.74
2023-01-01T15:55:28.922Z,89.32
2023-01-01T15:57:58.091Z,88.90
2023-01-01T16:00:29.333Z,89.32
2023-01-01T16:03:01.933Z,89.84
2023-01-01T16:05:30.188Z,89.64
2023-01-01T16:08:03.592Z,89.58
2023-01-01T16:10:35.559Z,89.75
2023-01-01T16:13:04.330Z,88.93
2023-01-01T16:15:32.390Z,88.80
2023-01-01T16:18:00.365Z,89.21
2023-01-01T16:20:29.525Z,89.14
2023-01-01T16:22:57.431Z,88.74
2023-01-01T16:25:27.988Z,88.96
2023-01-01T16:27:58.235Z,89.28
2023-01-01T16:30:26.502Z,88.92
2023-01-01T16:32:54.445Z,89.03
2023-01-01T16:35:23.442Z,89.17
2023-01-01T16:37:51.719Z,89.32
2023-01-01T16:40:20.095Z,89.22
2023-01-01T16:42:48.448Z,89.22
2023-01-01T16:45:19.760Z,89.24
2023-01-01T16:47:48.914Z,89.34
2023-01-01T16:50:18.648Z,89.25
2023-01-01T16:52:47.557Z,88.59
2023-01-01T16:55:15.964Z,89.18
2023-01-01T16:57:44.637Z,89.26
2023-01-01T17:00:13.618Z,88.92
2023-01-01T17:02:44.160Z,89.23
2023-01-01T17:05:12.485Z,88.87
2023-01-01T17:07:40.899Z,88.27
2023-01-01T17:10:10.077Z,88.49
2023-01-01T17:12:38.071Z,88.49
2023-01-01T17:15:07.261Z,89.16
2023-01-01T17:17:36.106Z,89.16
2023-01-01T17:20:06.324Z,88.63
2023-01-01T17:22:35.164Z,89.39
2023-01-01T17:25:03.557Z,89.26
2023-01-01T17:27:32.030Z,89.03
2023-01-01T17:30:00.564Z,89.29
2023-01-01T17:32:28.692Z,89.94
2023-01-01T17:34:56.644Z,89.84
2023-01-01T17:37:26.843Z,89.87
2023-01-01T17:39:54.717Z,89.90
2023-01-01T17:42:23.242Z,91.94
2023-01-01T17:44:51.256Z,91.15
2023-01-01T17:47:19.992Z,90.84
2023-01-01T17:49:49.578Z,91.35
2023-01-01T17:52:18.268Z,91.27
2023-01-01T17:54:47.568Z,91.75
2023-01-01T17:57:17.892Z,92.85
2023-01-01T17:59:46.125Z,93.39
2023-01-01T18:02:15.493Z,93.67
2023-01-01T18:04:43.444Z,92.95
2023-01-01T18:07:12.285Z,91.90
2023-01-01T18:09:40.550Z,92.41
2023-01-01T18:12:10.633Z,92.55
2023-01-01T18:14:39.047Z,92.38
2023-01-01T18:17:07.158Z,92.58
2023-01-01T18:19:37.387Z,92.89
2023-01-01T18:22:08.217Z,92.99
2023-01-01T18:24:36.602Z,93.08
2023-01-01T18:27:04.652Z,92.61
2023-01-01T18:29:35.614Z,92.53
2023-01-01T18:32:03.340Z,93.43
2023-01-01T18:34:31.942Z,92.45
2023-01-01T18:36:59.939Z,91.99
2023-01-01T18:39:29.368Z,92.68
2023-01-01T18:42:22.692Z,92.22
2023-01-01T18:44:52.924Z,92.72
2023-01-01T18:47:24.381Z,92.70
2023-01-01T18:49:59.673Z,92.83
2023-01-01T18:52:29.548Z,93.12
2023-01-01T18:55:03.227Z,93.39
2023-01-01T18:57:33.207Z,93.72
2023-01-01T19:00:16.182Z,94.02
2023-01-01T19:02:47.286Z,94.90
2023-01-01T19:05:18.694Z,95.16
2023-01-01T19:07:52.965Z,95.81
2023-01-01T19:10:20.950Z,96.88
2023-01-01T19:12:49.288Z,97.35
2023-01-01T19:15:21.514Z,98.12
2023-01-01T19:17:49.431Z,98.02
2023-01-01T19:20:19.570Z,98.36
2023-01-01T19:22:48.881Z,98.58
2023-01-01T19:25:35.395Z,99.35
2023-01-01T19:28:34.648Z,99.85
2023-01-01T19:31:06.479Z,99.99
2023-01-01T19:33:35.306Z,99.99
2023-01-01T19:36:03.533Z,99.99
2023-01-01T19:38:32.798Z,99.99
2023-01-01T19:41:01.439Z,99.99
2023-01-01T19:43:29.379Z,99.99
2023-01-01T19:45:57.329Z,99.99
2023-01-01T19:48:27.739Z,99.99
2023-01-01T19:50:55.504Z,99.99
2023-01-01T19:53:23.911Z,99.99
2023-01-01T19:55:52.292Z,99.99
2023-01-01T19:58:22.200Z,99.99
2023-01-01T20:00:51.074Z,99.99
2023-01-01T20:06:11.355Z,99.99
2023-01-01T20:08:40.256Z,99.99
2023-01-01T20:11:08.817Z,99.99
2023-01-01T20:13:37.290Z,99.99
2023-01-01T20:16:05.537Z,99.99
2023-01-01T20:18:33.842Z,99.99
2023-01-01T20:21:25.560Z,99.99
2023-01-01T20:23:55.793Z,99.99
2023-01-01T20:26:26.620Z,99.99
2023-01-01T20:29:13.379Z,99.99
2023-01-01T20:31:42.263Z,99.99
2023-01-01T20:34:10.649Z,99.99
2023-01-01T20:36:56.333Z,99.99
2023-01-01T20:39:26.879Z,99.99
2023-01-01T20:41:55.450Z,99.99
2023-01-01T20:44:23.435Z,99.99
2023-01-01T20:46:53.114Z,99.99
2023-01-01T20:49:22.029Z,99.99
2023-01-01T20:51:52.191Z,99.99
2023-01-01T20:54:21.248Z,99.99
2023-01-01T20:56:50.525Z,99.99
2023-01-01T20:59:36.330Z,99.99
2023-01-01T21:02:06.464Z,99.99
2023-01-01T21:04:39.361Z,99.99
2023-01-01T21:07:09.611Z,99.99
2023-01-01T21:09:37.855Z,99.99
2023-01-01T21:12:08.972Z,99.99
2023-01-01T21:14:37.165Z,99.99
2023-01-01T21:17:18.957Z,99.99
2023-01-01T21:19:47.004Z,99.99
2023-01-01T21:22:15.473Z,99.99
2023-01-01T21:24:47.259Z,99.99
2023-01-01T21:27:25.243Z,99.99
2023-01-01T21:29:57.053Z,99.99
2023-01-01T21:32:28.154Z,99.99
2023-01-01T21:34:57.163Z,99.99
2023-01-01T21:37:45.768Z,99.99
2023-01-01T21:40:36.907Z,99.99
2023-01-01T21:43:37.835Z,99.99
2023-01-01T21:46:32.818Z,99.99
2023-01-01T21:49:03.984Z,99.99
2023-01-01T21:51:34.851Z,99.99
2023-01-01T21:54:17.934Z,99.99
2023-01-01T21:56:54.564Z,99.99
2023-01-01T21:59:32.863Z,99.99
2023-01-01T22:02:36.018Z,99.99
2023-01-01T22:05:32.090Z,99.99
2023-01-01T22:08:00.952Z,99.99
2023-01-01T22:10:35.878Z,99.99
2023-01-01T22:13:03.877Z,99.97
2023-01-01T22:15:41.727Z,99.54
2023-01-01T22:18:20.482Z,99.30
2023-01-01T22:20:50.074Z,99.64
2023-01-01T22:23:35.304Z,99.64
2023-01-01T22:26:06.596Z,99.99
2023-01-01T22:28:41.771Z,99.99
2023-01-01T22:31:14.666Z,99.99
2023-01-01T22:33:47.056Z,99.99
2023-01-01T22:36:18.430Z,99.99
2023-01-01T22:38:46.918Z,99.99
2023-01-01T22:41:15.925Z,99.69
2023-01-01T22:43:46.942Z,99.99
2023-01-01T22:46:23.651Z,99.99
2023-01-01T22:48:57.694Z,99.99
2023-01-01T22:51:29.670Z,99.99
2023-01-01T22:53:58.406Z,99.99
2023-01-01T22:56:26.284Z,99.99
2023-01-01T22:58:57.550Z,99.99
2023-01-01T23:01:28.490Z,99.99
2023-01-01T23:03:56.579Z,99.99
2023-01-01T23:06:25.956Z,99.99
2023-01-01T23:08:54.717Z,99.99
2023-01-01T23:11:23.694Z,99.99
2023-01-01T23:14:10.027Z,99.99
2023-01-01T23:16:39.402Z,99.99
2023-01-01T23:19:08.611Z,99.99
2023-01-01T23:21:37.479Z,99.99
2023-01-01T23:24:09.897Z,99.99
2023-01-01T23:26:38.926Z,99.99
2023-01-01T23:29:07.413Z,99.99
2023-01-01T23:31:36.661Z,99.99
2023-01-01T23:34:06.233Z,99.99
2023-01-01T23:36:35.684Z,99.99
2023-01-01T23:39:03.677Z,99.99
2023-01-01T23:41:32.108Z,99.99
2023-01-01T23:44:00.907Z,99.99
2023-01-01T23:46:29.002Z,99.99
2023-01-01T23:48:57.467Z,99.99
2023-01-01T23:51:26.835Z,99.99
2023-01-01T23:53:55.249Z,99.99
2023-01-01T23:56:23.605Z,99.99
2023-01-01T23:58:51.553Z,99.99
